Time;durP1;ratioP1;P1;durP2;ratioP2;P2;SDS_P1;SDS_P2;PMS_P1;PMS_P2;Temp;Humidity;BMP_temperature;BMP_pressure;BME280_temperature;BME280_humidity;BME280_pressure;Samples;Min_cycle;Max_cycle;Signal;HPM_P1;HPM_P2
2023/02/20 00:01:10;;;;;;;30.90;14.50;;;4.60;99.90;;;;;;4813206;29;20291;-65
2023/02/20 00:04:16;;;;;;;28.77;13.93;;;4.60;99.90;;;;;;4820425;29;20633;-65
2023/02/20 00:07:21;;;;;;;31.17;12.97;;;4.60;99.90;;;;;;4824664;29;20368;-65
2023/02/20 00:10:28;;;;;;;35.77;13.53;;;4.80;99.90;;;;;;4819711;29;20244;-65
2023/02/20 00:13:34;;;;;;;38.83;15.27;;;5.00;99.90;;;;;;4820860;29;20203;-65
2023/02/20 00:16:40;;;;;;;32.97;14.57;;;5.10;99.90;;;;;;4823556;29;20220;-65
2023/02/20 00:19:47;;;;;;;42.17;15.77;;;5.20;99.90;;;;;;4820647;29;20315;-65
2023/02/20 00:22:53;;;;;;;42.27;16.13;;;5.50;99.90;;;;;;4823257;29;20360;-65
2023/02/20 00:26:00;;;;;;;42.10;16.17;;;5.50;99.90;;;;;;4822850;29;20339;-65
2023/02/20 00:29:06;;;;;;;41.37;16.70;;;5.60;99.90;;;;;;4814501;29;20224;-65
2023/02/20 00:32:12;;;;;;;38.90;17.43;;;5.70;99.90;;;;;;4814846;29;20350;-65
2023/02/20 00:35:20;;;;;;;40.70;16.97;;;5.60;99.90;;;;;;4818758;29;20235;-65
2023/02/20 00:38:25;;;;;;;41.70;16.47;;;5.70;99.90;;;;;;4812167;29;20357;-65
2023/02/20 00:41:32;;;;;;;40.27;16.60;;;5.80;99.90;;;;;;4820877;29;20736;-65
2023/02/20 00:44:38;;;;;;;39.33;17.07;;;5.80;99.90;;;;;;4820499;29;20666;-65
2023/02/20 00:47:44;;;;;;;43.37;17.73;;;5.80;99.90;;;;;;4827059;29;20235;-65
2023/02/20 00:50:50;;;;;;;31.60;16.17;;;5.80;99.90;;;;;;4819483;29;20688;-65
2023/02/20 00:53:56;;;;;;;35.73;17.53;;;5.80;99.90;;;;;;4818804;29;20231;-65
2023/02/20 00:57:03;;;;;;;41.50;17.03;;;5.90;99.90;;;;;;4817156;29;20216;-65
2023/02/20 01:00:17;;;;;;;43.90;17.47;;;6.00;99.90;;;;;;4813342;29;20484;-65
2023/02/20 01:03:23;;;;;;;38.57;16.53;;;6.00;99.90;;;;;;4820156;29;20299;-65
2023/02/20 01:06:29;;;;;;;32.10;16.87;;;6.10;99.90;;;;;;4815701;29;20212;-65
2023/02/20 01:09:34;;;;;;;38.90;16.23;;;6.10;99.90;;;;;;4816523;29;20284;-65
2023/02/20 01:12:42;;;;;;;37.47;16.93;;;6.10;99.90;;;;;;4819302;29;20296;-65
2023/02/20 01:15:48;;;;;;;31.43;14.97;;;6.10;99.90;;;;;;4817864;29;20238;-65
2023/02/20 01:18:54;;;;;;;31.30;16.00;;;6.20;99.90;;;;;;4819340;29;20691;-65
2023/02/20 01:22:03;;;;;;;38.67;15.20;;;6.20;99.90;;;;;;4816220;29;20236;-65
2023/02/20 01:25:09;;;;;;;38.07;14.90;;;6.20;99.90;;;;;;4821798;29;20863;-65
2023/02/20 01:28:17;;;;;;;28.37;13.57;;;6.30;99.90;;;;;;4819597;29;20208;-65
2023/02/20 01:31:24;;;;;;;35.63;15.10;;;6.30;99.90;;;;;;4817211;29;20247;-65
2023/02/20 01:34:29;;;;;;;39.07;13.60;;;6.40;99.90;;;;;;4820167;29;21082;-65
2023/02/20 01:37:35;;;;;;;35.73;13.83;;;6.50;99.90;;;;;;4820805;29;20661;-65
2023/02/20 01:40:48;;;;;;;30.33;12.80;;;6.40;99.90;;;;;;4819841;29;20269;-65
2023/02/20 01:43:55;;;;;;;30.97;13.50;;;6.50;99.90;;;;;;4821902;29;20235;-65
2023/02/20 01:47:02;;;;;;;33.57;13.23;;;6.50;99.90;;;;;;4813001;29;20236;-64
2023/02/20 01:50:09;;;;;;;26.70;12.77;;;6.60;99.90;;;;;;4817669;29;20272;-65
2023/02/20 01:53:18;;;;;;;34.73;13.27;;;6.60;99.90;;;;;;4820058;29;20284;-65
2023/02/20 01:56:24;;;;;;;35.27;13.37;;;6.60;99.90;;;;;;4812581;29;20640;-65
2023/02/20 01:59:35;;;;;;;31.33;13.03;;;6.60;99.90;;;;;;4821503;29;20636;-65
2023/02/20 02:02:48;;;;;;;30.83;12.77;;;6.60;99.90;;;;;;4820438;29;20208;-65
2023/02/20 02:05:57;;;;;;;36.60;12.70;;;6.60;99.90;;;;;;4817785;29;20234;-65
2023/02/20 02:09:09;;;;;;;30.97;12.23;;;6.60;99.90;;;;;;4819647;29;20235;-65
2023/02/20 02:12:15;;;;;;;25.37;11.47;;;6.60;99.90;;;;;;4819679;29;20212;-65
2023/02/20 02:15:23;;;;;;;31.00;11.23;;;6.60;99.90;;;;;;4820400;29;20207;-65
2023/02/20 02:18:49;;;;;;;23.37;10.70;;;6.50;99.90;;;;;;4818902;29;20227;-65
2023/02/20 02:22:41;;;;;;;31.13;11.67;;;6.50;99.90;;;;;;4818158;29;20237;-65
2023/02/20 02:25:55;;;;;;;34.97;10.90;;;6.50;99.90;;;;;;4815487;29;20240;-65
2023/02/20 02:29:40;;;;;;;25.53;11.13;;;6.30;99.90;;;;;;4816197;29;20549;-65
2023/02/20 02:33:04;;;;;;;29.30;10.23;;;6.30;99.90;;;;;;4815825;29;20261;-67
2023/02/20 02:36:36;;;;;;;26.57;11.13;;;6.20;99.90;;;;;;4813882;29;20235;-67
2023/02/20 02:39:48;;;;;;;28.53;10.70;;;6.10;99.90;;;;;;4815798;29;20369;-67
2023/02/20 02:43:03;;;;;;;28.30;11.27;;;6.00;99.90;;;;;;4815179;29;20262;-65
2023/02/20 02:46:14;;;;;;;26.47;10.20;;;5.90;99.90;;;;;;4815048;29;20246;-67
2023/02/20 02:49:26;;;;;;;25.53;9.87;;;5.90;99.90;;;;;;4812105;29;20235;-66
2023/02/20 02:52:45;;;;;;;28.33;10.70;;;5.90;99.90;;;;;;4813581;29;20249;-67
2023/02/20 02:55:51;;;;;;;22.63;10.00;;;5.90;99.90;;;;;;4814360;29;20268;-65
2023/02/20 02:58:58;;;;;;;27.13;10.77;;;5.90;99.90;;;;;;4815685;29;20695;-67
2023/02/20 03:02:13;;;;;;;26.00;10.33;;;6.00;99.90;;;;;;4811412;29;20227;-67
2023/02/20 03:05:22;;;;;;;20.60;9.70;;;6.10;99.90;;;;;;4814117;29;20244;-67
2023/02/20 03:08:36;;;;;;;27.17;10.93;;;6.10;99.90;;;;;;4816288;29;20235;-67
2023/02/20 03:11:43;;;;;;;28.13;9.50;;;6.20;99.90;;;;;;4816716;29;20294;-67
2023/02/20 03:18:29;;;;;;;27.53;10.10;;;6.20;99.90;;;;;;4817918;29;20330;-66
2023/02/20 03:21:37;;;;;;;29.33;8.87;;;6.30;99.90;;;;;;4819930;29;20227;-67
2023/02/20 03:24:55;;;;;;;19.73;9.03;;;6.40;99.90;;;;;;4818469;29;20302;-67
2023/02/20 03:28:03;;;;;;;33.00;9.60;;;6.50;99.90;;;;;;4815478;29;20742;-66
2023/02/20 03:31:15;;;;;;;28.40;8.87;;;6.60;99.90;;;;;;4820251;29;20597;-67
2023/02/20 03:44:40;;;;;;;24.40;8.00;;;6.90;99.90;;;;;;4819357;29;20708;-67
2023/02/20 03:47:52;;;;;;;18.67;8.27;;;6.90;99.90;;;;;;4821473;29;20243;-66
2023/02/20 03:50:59;;;;;;;22.30;7.80;;;7.00;99.90;;;;;;4820988;29;20596;-66
2023/02/20 03:54:05;;;;;;;17.57;8.40;;;7.00;99.90;;;;;;4819972;29;20253;-66
2023/02/20 03:57:16;;;;;;;24.87;8.20;;;7.00;99.90;;;;;;4820837;29;20713;-66
2023/02/20 04:00:27;;;;;;;19.50;8.90;;;7.00;99.90;;;;;;4816122;29;20288;-66
2023/02/20 04:03:38;;;;;;;19.00;7.73;;;7.10;99.90;;;;;;4820628;29;20243;-66
2023/02/20 04:06:48;;;;;;;24.00;8.40;;;7.00;99.90;;;;;;4819045;29;20235;-66
2023/02/20 04:09:58;;;;;;;20.47;8.17;;;7.00;99.90;;;;;;4818557;29;20288;-66
2023/02/20 04:13:06;;;;;;;23.60;7.97;;;7.10;99.90;;;;;;4816447;29;20258;-66
2023/02/20 04:16:13;;;;;;;29.90;8.87;;;7.10;99.90;;;;;;4821778;29;20699;-66
2023/02/20 04:19:20;;;;;;;18.90;7.93;;;7.00;99.90;;;;;;4814640;29;20714;-67
2023/02/20 04:22:29;;;;;;;29.10;8.17;;;7.00;99.90;;;;;;4816869;29;20220;-66
2023/02/20 04:25:40;;;;;;;23.60;8.50;;;7.10;99.90;;;;;;4813396;29;20231;-66
2023/02/20 04:28:47;;;;;;;21.73;8.37;;;7.00;99.90;;;;;;4820006;29;20257;-66
2023/02/20 04:31:53;;;;;;;19.00;7.87;;;7.00;99.90;;;;;;4821477;29;20292;-66
2023/02/20 04:35:00;;;;;;;25.37;8.37;;;7.10;99.90;;;;;;4819856;29;20228;-66
2023/02/20 04:38:07;;;;;;;16.70;7.47;;;7.10;99.90;;;;;;4821569;29;20261;-66
2023/02/20 04:41:12;;;;;;;19.57;7.07;;;7.10;99.90;;;;;;4819816;29;20232;-66
2023/02/20 04:44:32;;;;;;;20.53;7.17;;;7.10;99.90;;;;;;4822405;29;20321;-66
2023/02/20 04:47:39;;;;;;;17.37;7.37;;;7.10;99.90;;;;;;4819849;29;20224;-66
2023/02/20 04:50:44;;;;;;;17.10;8.07;;;7.10;99.90;;;;;;4818166;29;20288;-66
2023/02/20 04:53:50;;;;;;;28.00;7.70;;;7.10;99.90;;;;;;4816732;29;20228;-66
2023/02/20 04:56:56;;;;;;;19.67;7.10;;;7.10;99.90;;;;;;4817839;29;20288;-66
2023/02/20 05:00:04;;;;;;;23.93;7.87;;;7.10;99.90;;;;;;4816186;29;20223;-66
2023/02/20 05:03:10;;;;;;;18.83;7.50;;;7.10;99.90;;;;;;4820990;29;20293;-66
2023/02/20 05:06:16;;;;;;;25.23;7.23;;;7.10;99.90;;;;;;4816592;29;20800;-66
2023/02/20 05:09:23;;;;;;;17.60;6.97;;;7.10;99.90;;;;;;4814841;29;20332;-66
2023/02/20 05:12:28;;;;;;;19.10;6.80;;;7.10;99.90;;;;;;4818173;29;20285;-66
2023/02/20 05:15:36;;;;;;;11.53;6.30;;;7.10;99.90;;;;;;4813487;29;20200;-66
2023/02/20 05:18:43;;;;;;;20.97;6.87;;;7.00;99.90;;;;;;4809604;29;20238;-66
2023/02/20 05:25:12;;;;;;;16.67;7.20;;;7.00;99.90;;;;;;4819331;29;20280;-66
2023/02/20 05:28:18;;;;;;;18.90;6.60;;;7.00;99.90;;;;;;4818967;29;20212;-66
2023/02/20 05:31:25;;;;;;;19.57;6.93;;;7.00;99.90;;;;;;4819005;29;20253;-66
2023/02/20 05:34:31;;;;;;;17.40;7.07;;;7.00;99.90;;;;;;4817624;29;20268;-66
2023/02/20 05:37:37;;;;;;;15.20;6.70;;;7.00;99.90;;;;;;4817991;29;20621;-66
2023/02/20 05:40:43;;;;;;;19.30;6.53;;;7.00;99.90;;;;;;4818389;29;20228;-66
2023/02/20 05:43:49;;;;;;;18.23;6.50;;;7.00;99.90;;;;;;4818296;29;20200;-66
2023/02/20 05:46:56;;;;;;;20.90;7.77;;;7.10;99.90;;;;;;4819344;29;20226;-66
2023/02/20 05:50:03;;;;;;;15.87;6.93;;;7.10;99.90;;;;;;4814170;29;20274;-66
2023/02/20 05:53:09;;;;;;;23.03;8.00;;;7.10;99.90;;;;;;4818115;29;20288;-66
2023/02/20 05:56:15;;;;;;;17.90;8.13;;;7.10;99.90;;;;;;4815535;29;20760;-66
2023/02/20 05:59:24;;;;;;;22.10;8.43;;;7.10;99.90;;;;;;4818203;29;20249;-66
2023/02/20 06:02:33;;;;;;;22.00;8.07;;;7.10;99.90;;;;;;4815996;29;20243;-66
2023/02/20 06:05:39;;;;;;;21.80;8.83;;;7.10;99.90;;;;;;4819111;29;20723;-66
2023/02/20 06:08:47;;;;;;;22.90;8.73;;;7.10;99.90;;;;;;4815789;29;20209;-66
2023/02/20 06:11:55;;;;;;;21.77;8.30;;;7.10;99.90;;;;;;4811689;29;20231;-66
2023/02/20 06:15:01;;;;;;;21.83;9.00;;;7.10;99.90;;;;;;4811263;29;20211;-67
2023/02/20 06:18:08;;;;;;;21.03;8.40;;;7.10;99.90;;;;;;4818077;29;20273;-67
2023/02/20 06:21:14;;;;;;;20.43;9.17;;;7.10;99.90;;;;;;4817029;29;20288;-67
2023/02/20 06:24:20;;;;;;;19.93;8.80;;;7.10;99.90;;;;;;4818493;29;20239;-67
2023/02/20 06:27:26;;;;;;;23.23;9.63;;;7.10;99.90;;;;;;4813363;29;20223;-67
2023/02/20 06:30:32;;;;;;;23.20;8.97;;;7.10;99.90;;;;;;4814133;29;20203;-67
2023/02/20 06:33:40;;;;;;;22.17;9.90;;;7.10;99.90;;;;;;4812712;29;20289;-67
2023/02/20 06:36:46;;;;;;;19.13;9.63;;;7.20;99.90;;;;;;4817689;29;20247;-66
2023/02/20 06:39:51;;;;;;;30.30;9.63;;;7.20;99.90;;;;;;4816102;29;20265;-67
2023/02/20 06:42:57;;;;;;;21.63;9.17;;;7.20;99.90;;;;;;4815545;29;20585;-67
2023/02/20 06:46:03;;;;;;;19.43;9.37;;;7.20;99.90;;;;;;4819035;29;20726;-67
2023/02/20 06:49:11;;;;;;;19.57;9.07;;;7.20;99.90;;;;;;4818472;29;20244;-67
2023/02/20 06:52:16;;;;;;;21.93;9.23;;;7.20;99.90;;;;;;4816147;29;20239;-67
2023/02/20 06:55:22;;;;;;;24.87;9.30;;;7.20;99.90;;;;;;4816913;29;20235;-67
2023/02/20 06:58:28;;;;;;;21.30;9.07;;;7.20;99.90;;;;;;4816586;29;20231;-67
2023/02/20 07:01:39;;;;;;;22.33;9.00;;;7.30;99.90;;;;;;4812899;29;20257;-67
2023/02/20 07:04:51;;;;;;;27.63;9.27;;;7.30;99.90;;;;;;4815505;29;20760;-67
2023/02/20 07:07:57;;;;;;;28.33;9.20;;;7.40;99.90;;;;;;4810409;29;20276;-67
2023/02/20 07:11:03;;;;;;;20.47;8.87;;;7.30;99.90;;;;;;4813116;29;20275;-66
2023/02/20 07:14:09;;;;;;;24.40;8.90;;;7.40;99.90;;;;;;4815283;29;20208;-67
2023/02/20 07:17:15;;;;;;;25.30;8.47;;;7.30;99.90;;;;;;4818377;29;20208;-67
2023/02/20 07:20:22;;;;;;;30.33;8.90;;;7.40;99.90;;;;;;4812153;29;20224;-67
2023/02/20 07:23:28;;;;;;;16.33;8.27;;;7.40;99.90;;;;;;4817147;29;20223;-67
2023/02/20 07:26:36;;;;;;;17.63;8.47;;;7.40;99.90;;;;;;4816216;29;20270;-67
2023/02/20 07:29:44;;;;;;;21.40;8.30;;;7.40;99.90;;;;;;4818634;29;20342;-67
2023/02/20 07:32:50;;;;;;;21.67;8.90;;;7.50;99.90;;;;;;4817512;29;20235;-67
2023/02/20 07:35:57;;;;;;;19.43;9.23;;;7.50;99.90;;;;;;4816718;29;20253;-66
2023/02/20 07:39:05;;;;;;;20.40;7.97;;;7.50;99.90;;;;;;4818804;29;20208;-67
2023/02/20 07:42:12;;;;;;;25.20;8.43;;;7.60;99.90;;;;;;4817201;29;21051;-67
2023/02/20 07:45:18;;;;;;;22.10;7.63;;;7.60;99.90;;;;;;4815799;29;20204;-66
2023/02/20 07:48:24;;;;;;;20.10;7.10;;;7.60;99.90;;;;;;4812082;29;20212;-66
2023/02/20 07:51:32;;;;;;;21.40;8.67;;;7.70;99.90;;;;;;4819175;29;20201;-68
2023/02/20 07:54:42;;;;;;;16.43;8.17;;;7.70;99.90;;;;;;4816464;29;20245;-67
2023/02/20 07:57:50;;;;;;;19.83;7.67;;;7.70;99.90;;;;;;4817954;29;20312;-67
2023/02/20 08:00:56;;;;;;;17.43;7.80;;;7.70;99.90;;;;;;4810979;29;20753;-65
2023/02/20 08:04:02;;;;;;;14.73;7.17;;;7.70;99.90;;;;;;4820966;29;20236;-66
2023/02/20 08:07:10;;;;;;;21.03;7.93;;;7.80;99.90;;;;;;4819827;29;20388;-66
2023/02/20 08:10:16;;;;;;;22.73;7.37;;;7.80;99.90;;;;;;4817724;29;20377;-66
2023/02/20 08:13:23;;;;;;;19.70;8.00;;;7.90;99.90;;;;;;4820970;29;20264;-66
2023/02/20 08:16:28;;;;;;;17.80;7.83;;;7.80;99.90;;;;;;4816541;29;20235;-66
2023/02/20 08:19:34;;;;;;;19.13;7.60;;;7.90;99.90;;;;;;4818724;29;20323;-66
2023/02/20 08:22:44;;;;;;;16.40;7.97;;;8.00;99.90;;;;;;4816008;29;20313;-66
2023/02/20 08:25:50;;;;;;;18.43;7.30;;;8.00;99.90;;;;;;4816056;29;20240;-66
2023/02/20 08:28:56;;;;;;;18.13;7.70;;;8.00;99.90;;;;;;4816375;29;20249;-65
2023/02/20 08:32:02;;;;;;;18.77;7.70;;;8.00;99.90;;;;;;4819935;29;20905;-65
2023/02/20 08:35:08;;;;;;;21.00;7.63;;;8.00;99.90;;;;;;4808657;29;20267;-65
2023/02/20 08:38:28;;;;;;;19.40;7.50;;;8.00;99.90;;;;;;4816851;29;20626;-65
2023/02/20 08:41:34;;;;;;;14.70;7.10;;;8.10;99.90;;;;;;4819725;29;20277;-65
2023/02/20 08:44:41;;;;;;;19.77;8.20;;;8.20;99.90;;;;;;4818558;29;20261;-65
2023/02/20 08:47:47;;;;;;;19.87;7.90;;;8.20;99.90;;;;;;4819760;29;20824;-65
2023/02/20 08:50:54;;;;;;;24.23;7.77;;;8.10;99.90;;;;;;4817048;29;20762;-65
2023/02/20 08:54:03;;;;;;;18.33;7.50;;;8.10;99.90;;;;;;4811111;29;20228;-65
2023/02/20 08:57:09;;;;;;;24.37;7.93;;;8.10;99.90;;;;;;4826700;29;20231;-65
2023/02/20 09:00:16;;;;;;;17.23;7.47;;;8.20;99.90;;;;;;4822465;29;20211;-64
2023/02/20 09:03:22;;;;;;;16.43;7.93;;;8.20;99.90;;;;;;4818607;29;20584;-65
2023/02/20 09:06:28;;;;;;;20.67;8.33;;;8.20;99.90;;;;;;4813405;29;20318;-65
2023/02/20 09:09:35;;;;;;;15.60;8.37;;;8.30;99.90;;;;;;4820946;29;20275;-65
2023/02/20 09:12:41;;;;;;;21.53;8.90;;;8.30;99.90;;;;;;4818673;29;20486;-66
2023/02/20 09:15:47;;;;;;;23.83;7.80;;;8.30;99.90;;;;;;4818565;29;20203;-65
2023/02/20 09:18:54;;;;;;;16.03;8.13;;;8.40;99.90;;;;;;4817834;29;20260;-65
2023/02/20 09:22:02;;;;;;;20.10;7.67;;;8.30;99.90;;;;;;4819603;29;20252;-67
2023/02/20 09:25:11;;;;;;;17.17;7.57;;;8.40;99.90;;;;;;4818949;29;20219;-65
2023/02/20 09:28:17;;;;;;;18.10;7.93;;;8.40;99.90;;;;;;4819680;29;20232;-65
2023/02/20 09:31:23;;;;;;;19.67;7.93;;;8.40;99.90;;;;;;4823100;29;20307;-65
2023/02/20 09:34:29;;;;;;;16.17;7.00;;;8.50;99.90;;;;;;4819208;29;20317;-65
2023/02/20 09:37:35;;;;;;;12.40;7.00;;;8.50;99.90;;;;;;4820739;29;20237;-65
2023/02/20 09:40:43;;;;;;;19.00;7.47;;;8.60;99.90;;;;;;4817946;29;20200;-64
2023/02/20 09:43:58;;;;;;;18.53;7.83;;;8.60;99.90;;;;;;4826579;29;20237;-64
2023/02/20 09:47:24;;;;;;;16.77;7.33;;;8.60;99.90;;;;;;4819261;29;20242;-65
2023/02/20 09:50:36;;;;;;;17.50;7.50;;;8.70;99.90;;;;;;4813522;29;20273;-65
2023/02/20 09:53:52;;;;;;;18.77;7.60;;;8.70;99.90;;;;;;4802230;29;20240;-65
2023/02/20 09:57:01;;;;;;;14.27;7.73;;;8.70;99.90;;;;;;4812675;29;20604;-65
2023/02/20 10:00:12;;;;;;;18.03;7.47;;;8.70;99.90;;;;;;4814384;29;20239;-65
2023/02/20 10:03:24;;;;;;;12.40;7.43;;;8.80;99.90;;;;;;4819772;29;20249;-65
2023/02/20 10:06:34;;;;;;;14.53;7.90;;;8.80;99.90;;;;;;4810940;29;20267;-65
2023/02/20 10:09:40;;;;;;;17.20;7.83;;;8.80;99.90;;;;;;4808916;29;20297;-65
2023/02/20 10:13:00;;;;;;;14.20;7.50;;;8.90;99.90;;;;;;4806400;29;20235;-65
2023/02/20 10:16:20;;;;;;;17.00;7.80;;;9.00;99.90;;;;;;4814024;29;20208;-65
2023/02/20 10:19:36;;;;;;;17.23;7.13;;;9.00;99.90;;;;;;4818031;29;20208;-64
2023/02/20 10:22:52;;;;;;;12.33;7.57;;;9.10;99.90;;;;;;4813692;29;20241;-65
2023/02/20 10:26:01;;;;;;;13.67;6.93;;;9.10;99.90;;;;;;4817328;29;20215;-65
2023/02/20 10:29:18;;;;;;;16.37;7.37;;;9.10;99.90;;;;;;4809871;29;20249;-65
2023/02/20 10:32:28;;;;;;;16.87;7.50;;;9.10;99.90;;;;;;4815586;29;20277;-65
2023/02/20 10:35:40;;;;;;;16.17;7.30;;;9.20;99.90;;;;;;4816413;29;20299;-65
2023/02/20 10:38:50;;;;;;;15.57;7.07;;;9.20;99.90;;;;;;4817381;29;20703;-65
2023/02/20 10:42:03;;;;;;;15.73;8.00;;;9.20;99.90;;;;;;4816985;29;20276;-65
2023/02/20 10:45:15;;;;;;;12.13;7.50;;;9.20;99.90;;;;;;4818909;29;20260;-65
2023/02/20 10:48:26;;;;;;;14.13;7.37;;;9.20;99.90;;;;;;4812056;29;20208;-65
2023/02/20 10:51:38;;;;;;;17.13;7.47;;;9.20;99.90;;;;;;4815035;29;20239;-65
2023/02/20 10:54:50;;;;;;;18.53;7.50;;;9.20;99.90;;;;;;4814013;29;20224;-65
2023/02/20 10:58:03;;;;;;;13.77;6.67;;;9.20;99.90;;;;;;4812434;29;20381;-65
2023/02/20 11:01:13;;;;;;;14.30;6.67;;;9.30;99.90;;;;;;4816402;29;20286;-65
2023/02/20 11:04:24;;;;;;;12.47;6.47;;;9.30;99.90;;;;;;4817282;29;20240;-65
2023/02/20 11:07:29;;;;;;;18.73;6.40;;;9.40;99.90;;;;;;4811735;29;20724;-65
2023/02/20 11:10:37;;;;;;;12.43;6.43;;;9.40;99.90;;;;;;4815078;29;20267;-65
2023/02/20 11:13:43;;;;;;;14.50;6.80;;;9.40;99.90;;;;;;4810345;29;20775;-65
2023/02/20 11:16:56;;;;;;;13.00;6.30;;;9.50;99.90;;;;;;4814346;29;20239;-65
2023/02/20 11:20:05;;;;;;;13.83;6.87;;;9.40;99.90;;;;;;4812844;29;20289;-65
2023/02/20 11:23:11;;;;;;;21.63;6.13;;;9.40;99.90;;;;;;4806751;29;20608;-65
2023/02/20 11:26:29;;;;;;;15.77;6.73;;;9.40;99.90;;;;;;4813129;29;20257;-65
2023/02/20 11:29:43;;;;;;;18.37;7.30;;;9.50;99.90;;;;;;4818962;29;20209;-65
2023/02/20 11:32:59;;;;;;;15.07;6.30;;;9.50;99.90;;;;;;4818682;29;20212;-65
2023/02/20 11:36:14;;;;;;;14.93;6.27;;;9.50;99.90;;;;;;4817781;29;20265;-65
2023/02/20 11:39:27;;;;;;;14.10;5.90;;;9.50;99.90;;;;;;4818162;29;20365;-65
2023/02/20 11:42:34;;;;;;;17.70;6.13;;;9.50;99.90;;;;;;4818746;29;20304;-65
2023/02/20 11:45:41;;;;;;;10.70;5.53;;;9.40;99.90;;;;;;4819415;29;20296;-65
2023/02/20 11:49:06;;;;;;;13.93;5.90;;;9.50;99.90;;;;;;4820884;29;20669;-65
2023/02/20 11:52:17;;;;;;;12.20;5.50;;;9.60;99.90;;;;;;4812689;29;21223;-65
2023/02/20 11:55:25;;;;;;;10.07;6.03;;;9.70;99.90;;;;;;4813464;29;20231;-65
2023/02/20 11:58:33;;;;;;;12.53;5.27;;;9.70;99.90;;;;;;4815470;29;20917;-65
2023/02/20 12:01:39;;;;;;;11.10;5.50;;;9.60;99.90;;;;;;4819618;29;20218;-65
2023/02/20 12:05:07;;;;;;;10.73;5.37;;;9.70;99.90;;;;;;4819608;29;20271;-65
2023/02/20 12:08:38;;;;;;;12.43;5.90;;;9.70;99.90;;;;;;4815518;29;20208;-65
2023/02/20 12:11:44;;;;;;;12.83;5.30;;;9.70;99.90;;;;;;4817352;29;20260;-65
2023/02/20 12:14:51;;;;;;;19.03;6.10;;;9.70;99.90;;;;;;4815818;29;20249;-66
2023/02/20 12:18:19;;;;;;;14.57;6.00;;;9.90;99.90;;;;;;4818241;29;20598;-64
2023/02/20 12:21:43;;;;;;;13.17;6.07;;;9.90;99.90;;;;;;4816342;29;20645;-65
2023/02/20 12:25:03;;;;;;;8.80;5.37;;;10.00;99.90;;;;;;4818660;29;20268;-65
2023/02/20 12:28:17;;;;;;;11.57;5.83;;;10.20;99.90;;;;;;4812237;29;20300;-65
2023/02/20 12:31:39;;;;;;;12.87;5.63;;;10.20;99.90;;;;;;4815677;29;20215;-65
2023/02/20 12:35:06;;;;;;;7.03;5.70;;;10.30;99.90;;;;;;4815301;29;20345;-65
2023/02/20 12:38:30;;;;;;;9.00;5.77;;;10.30;99.90;;;;;;4816582;29;20308;-65
2023/02/20 12:41:49;;;;;;;8.67;4.87;;;10.30;99.90;;;;;;4818974;29;20208;-65
2023/02/20 12:45:17;;;;;;;8.93;5.33;;;10.40;99.90;;;;;;4814223;29;20703;-65
2023/02/20 12:48:37;;;;;;;8.00;4.60;;;10.30;99.90;;;;;;4822838;29;20207;-65
2023/02/20 12:51:50;;;;;;;8.57;4.70;;;10.30;99.90;;;;;;4818063;29;20240;-65
2023/02/20 12:55:03;;;;;;;10.80;5.40;;;10.20;99.90;;;;;;4820929;29;20224;-65
2023/02/20 12:58:19;;;;;;;8.20;4.57;;;10.30;99.90;;;;;;4812037;29;20307;-65
2023/02/20 13:01:25;;;;;;;10.30;5.20;;;10.20;99.90;;;;;;4820006;29;20684;-65
2023/02/20 13:04:48;;;;;;;8.23;5.17;;;10.20;99.90;;;;;;4822216;29;20267;-65
2023/02/20 13:07:57;;;;;;;10.30;5.80;;;10.10;99.90;;;;;;4816726;29;20236;-65
2023/02/20 13:11:10;;;;;;;9.70;5.23;;;10.00;99.90;;;;;;4820921;29;20252;-65
2023/02/20 13:14:27;;;;;;;10.87;6.03;;;10.00;99.90;;;;;;4810132;29;20791;-65
2023/02/20 13:17:44;;;;;;;10.63;6.00;;;10.10;99.90;;;;;;4816649;29;20238;-65
2023/02/20 13:20:53;;;;;;;10.03;6.00;;;10.00;99.90;;;;;;4823648;29;20207;-65
2023/02/20 13:24:27;;;;;;;9.87;5.43;;;10.10;99.90;;;;;;4823748;29;20322;-65
2023/02/20 13:27:35;;;;;;;7.00;4.83;;;10.10;99.90;;;;;;4814469;29;20246;-65
2023/02/20 13:30:42;;;;;;;7.87;5.30;;;10.20;99.90;;;;;;4819359;29;20692;-65
2023/02/20 13:33:52;;;;;;;9.50;4.57;;;10.20;99.90;;;;;;4821369;29;20269;-65
2023/02/20 13:36:58;;;;;;;15.57;4.80;;;10.20;99.90;;;;;;4819324;29;20236;-65
2023/02/20 13:40:35;;;;;;;12.50;4.87;;;10.20;99.90;;;;;;4815862;29;20222;-65
2023/02/20 13:43:42;;;;;;;9.00;4.70;;;10.30;99.90;;;;;;4815366;29;20244;-65
2023/02/20 13:46:56;;;;;;;13.20;5.23;;;10.20;99.90;;;;;;4816699;29;20228;-65
2023/02/20 13:50:03;;;;;;;9.80;5.10;;;10.20;99.90;;;;;;4821779;29;20252;-65
2023/02/20 13:53:09;;;;;;;11.50;5.30;;;10.20;99.90;;;;;;4815727;29;20239;-65
2023/02/20 13:56:15;;;;;;;9.37;4.70;;;10.20;99.90;;;;;;4820484;29;20307;-65
2023/02/20 13:59:22;;;;;;;10.87;4.87;;;10.20;99.90;;;;;;4818415;29;20309;-65
2023/02/20 14:02:29;;;;;;;8.13;4.90;;;10.30;99.90;;;;;;4817688;29;20207;-65
2023/02/20 14:05:36;;;;;;;15.40;4.60;;;10.20;99.90;;;;;;4819186;29;20212;-65
2023/02/20 14:08:44;;;;;;;13.53;5.33;;;10.10;99.90;;;;;;4818507;29;20231;-65
2023/02/20 14:11:53;;;;;;;11.43;5.90;;;10.20;99.90;;;;;;4817416;29;21505;-65
2023/02/20 14:15:05;;;;;;;16.00;6.20;;;10.20;99.90;;;;;;4815683;29;20239;-65
2023/02/20 14:18:16;;;;;;;12.83;6.13;;;10.20;99.90;;;;;;4817202;29;20265;-65
2023/02/20 14:21:23;;;;;;;13.70;6.90;;;10.20;99.90;;;;;;4815069;29;20207;-65
2023/02/20 14:24:29;;;;;;;11.63;6.63;;;10.20;99.90;;;;;;4818319;29;20337;-65
2023/02/20 14:27:35;;;;;;;11.67;6.40;;;10.20;99.90;;;;;;4817271;29;20249;-65
2023/02/20 14:30:43;;;;;;;13.37;6.60;;;10.20;99.90;;;;;;4820226;29;20259;-66
2023/02/20 14:33:50;;;;;;;10.27;6.43;;;10.20;99.90;;;;;;4818672;29;20213;-66
2023/02/20 14:37:05;;;;;;;11.43;6.87;;;10.20;99.90;;;;;;4820092;29;20212;-65
2023/02/20 14:40:17;;;;;;;12.57;7.27;;;10.20;99.90;;;;;;4815296;29;20213;-65
2023/02/20 14:43:26;;;;;;;15.07;7.20;;;10.10;99.90;;;;;;4814777;29;20240;-65
2023/02/20 14:46:36;;;;;;;13.33;7.00;;;10.20;99.90;;;;;;4820961;29;20220;-65
2023/02/20 14:49:43;;;;;;;16.23;7.40;;;10.20;99.90;;;;;;4823304;29;20691;-65
2023/02/20 14:53:01;;;;;;;15.87;7.17;;;10.20;99.90;;;;;;4814512;29;20231;-65
2023/02/20 14:56:13;;;;;;;11.43;6.20;;;10.20;99.90;;;;;;4815315;29;20239;-65
2023/02/20 14:59:28;;;;;;;10.13;6.20;;;10.20;99.90;;;;;;4815717;29;20261;-65
2023/02/20 15:02:35;;;;;;;14.00;5.97;;;10.20;99.90;;;;;;4821704;29;20235;-65
2023/02/20 15:05:43;;;;;;;11.23;6.27;;;10.20;99.90;;;;;;4818760;29;20715;-65
2023/02/20 15:08:57;;;;;;;9.20;6.57;;;10.10;99.90;;;;;;4824355;29;20235;-65
2023/02/20 15:12:05;;;;;;;11.10;6.13;;;10.10;99.90;;;;;;4822519;29;20231;-65
2023/02/20 15:15:13;;;;;;;12.20;7.20;;;10.00;99.90;;;;;;4818977;29;20856;-65
2023/02/20 15:18:34;;;;;;;13.03;7.37;;;10.10;99.90;;;;;;4821277;29;20561;-65
2023/02/20 15:21:42;;;;;;;16.67;6.80;;;10.00;99.90;;;;;;4822616;29;20314;-65
2023/02/20 15:24:48;;;;;;;10.50;6.07;;;10.00;99.90;;;;;;4818211;29;20255;-65
2023/02/20 15:28:09;;;;;;;12.87;6.53;;;10.00;99.90;;;;;;4822564;29;20276;-65
2023/02/20 15:31:23;;;;;;;12.27;6.17;;;10.00;99.90;;;;;;4818371;29;20247;-65
2023/02/20 15:34:34;;;;;;;11.80;6.60;;;10.00;99.90;;;;;;4820437;29;20257;-65
2023/02/20 15:37:40;;;;;;;7.87;6.23;;;9.90;99.90;;;;;;4822259;29;20228;-65
2023/02/20 15:40:56;;;;;;;12.40;6.80;;;9.90;99.90;;;;;;4821360;29;20216;-65
2023/02/20 15:44:03;;;;;;;14.50;6.23;;;9.90;99.90;;;;;;4819492;29;20232;-65
2023/02/20 15:47:09;;;;;;;12.70;6.53;;;9.90;99.90;;;;;;4822759;29;20269;-65
2023/02/20 15:50:16;;;;;;;8.60;6.30;;;9.90;99.90;;;;;;4829766;29;20237;-65
2023/02/20 15:53:25;;;;;;;11.87;7.00;;;9.90;99.90;;;;;;4822939;29;20262;-65
2023/02/20 15:56:34;;;;;;;11.53;7.03;;;9.90;99.90;;;;;;4821713;29;20260;-65
2023/02/20 15:59:40;;;;;;;8.10;5.80;;;9.90;99.90;;;;;;4822366;29;20775;-66
2023/02/20 16:02:46;;;;;;;11.37;6.97;;;9.80;99.90;;;;;;4823437;29;20211;-65
2023/02/20 16:05:54;;;;;;;11.43;6.37;;;9.80;99.90;;;;;;4827223;29;20223;-65
2023/02/20 16:09:00;;;;;;;8.57;5.93;;;9.80;99.90;;;;;;4822906;29;20255;-65
2023/02/20 16:12:06;;;;;;;11.93;6.53;;;9.70;99.90;;;;;;4826410;29;20255;-65
2023/02/20 16:15:16;;;;;;;11.77;6.60;;;9.70;99.90;;;;;;4818799;29;20280;-65
2023/02/20 16:18:22;;;;;;;8.17;6.53;;;9.70;99.90;;;;;;4823837;29;20215;-65
2023/02/20 16:21:30;;;;;;;8.03;6.43;;;9.60;99.90;;;;;;4822831;29;20227;-65
2023/02/20 16:24:37;;;;;;;7.97;6.63;;;9.60;99.90;;;;;;4815985;29;20673;-65
2023/02/20 16:27:44;;;;;;;14.50;6.80;;;9.60;99.90;;;;;;4816741;29;20298;-65
2023/02/20 16:30:50;;;;;;;12.77;6.87;;;9.60;99.90;;;;;;4818600;29;20232;-65
2023/02/20 16:33:56;;;;;;;11.43;6.97;;;9.60;99.90;;;;;;4818307;29;20265;-65
2023/02/20 16:37:04;;;;;;;12.73;7.30;;;9.50;99.90;;;;;;4813835;29;20276;-65
2023/02/20 16:40:11;;;;;;;10.43;7.57;;;9.50;99.90;;;;;;4810606;29;20260;-65